< < Back
Terminal Aerodrome Forecast


Current Version              Previous Versions:   1  2  3  4  5  6  7  8  9  

Terminal Aerodrome Forecast

129
FTUS42 KTAE 241120
TAFDHN
TAF
KDHN 241120Z 2412/2512 14004KT P6SM SCT250
     FM241800 17007KT P6SM VCTS SCT040CB SCT250
     FM250100 19003KT P6SM SCT250=

Latest METAR

113
SAUS70 KWBC 250756
MTRDHN
METAR KDHN 250753Z AUTO 12003KT 10SM CLR 24/23 A3004 RMK AO2 SLP165
T02390233


USA.gov is the U.S. government's official web portal to all federal, state and local government web resources and services.